This is the latest recevied weather packets stored in our database for station/object VK2BLR. If no packets are shown the sender has not sent any weather packets the latest 10 day(s).
| Time | Temp. | Humidity | Pressure | Rain* | Wind** | Luminosity | Snow |
|---|---|---|---|---|---|---|---|
| 1787879191 | 17.78° C | 51% | 1026.6 hPa | 0 mm | - | - | - |
| 1787878290 | 17.22° C | 60% | 1026.8 hPa | 0 mm | - | - | - |
| 1787877390 | 17.22° C | 61% | 1026.8 hPa | 0 mm | - | - | - |
| 1787876492 | 16.67° C | 62% | 1026.9 hPa | 0 mm | - | - | - |
| 1787875591 | 16.11° C | 62% | 1026.8 hPa | 0 mm | - | - | - |
| 1787874691 | 15.56° C | 64% | 1026.7 hPa | 0 mm | - | - | - |
| 1787873792 | 15° C | 64% | 1026.7 hPa | 0 mm | - | - | - |
| 1787872892 | 15° C | 63% | 1026.7 hPa | 0 mm | - | - | - |
| 1787871991 | 15° C | 64% | 1026.6 hPa | 0 mm | - | - | - |
| 1787871091 | 15° C | 66% | 1026.4 hPa | 0 mm | - | - | - |
| 1787870191 | 13.89° C | 70% | 1026.3 hPa | 0 mm | - | - | - |
| 1787869290 | 12.78° C | 74% | 1026 hPa | 0 mm | - | - | - |
| 1787868390 | 10° C | 79% | 1025.8 hPa | 0 mm | - | - | - |
| 1787867492 | 9.44° C | 81% | 1025.7 hPa | 0 mm | - | - | - |
| 1787866592 | 8.33° C | 84% | 1025.4 hPa | 0 mm | - | - | - |
| 1787865691 | 6.67° C | 89% | 1025.1 hPa | 0 mm | - | - | - |
| 1787864790 | 5.56° C | 89% | 1025.2 hPa | 0 mm | - | - | - |
| 1787863891 | 4.44° C | 87% | 1024.8 hPa | 0 mm | - | - | - |
| 1787862991 | 4.44° C | 86% | 1024.8 hPa | 0 mm | - | - | - |
| 1787862091 | 4.44° C | 86% | 1024.8 hPa | 0 mm | - | - | - |
| 1787861190 | 4.44° C | 86% | 1024.6 hPa | 0 mm | - | - | - |
| 1787860292 | 4.44° C | 86% | 1024.4 hPa | 0 mm | - | - | - |
| 1787859392 | 5° C | 86% | 1024.4 hPa | 0 mm | - | - | - |
| 1787858491 | 5° C | 86% | 1024 hPa | 0 mm | - | - | - |
| 1787857591 | 5° C | 85% | 1024 hPa | 0 mm | - | - | - |
* Rain latest hour (hover to see other rain measurements)
** Current wind speed in m/s (hover to see current wind gust speed)